sensor_id;sensor_type;location;lat;lon;timestamp;P1;durP1;ratioP1;P2;durP2;ratioP2
14858;SDS011;7521;51.700;6.874;2023-07-09T00:03:00;8.40;;;7.50;;
14858;SDS011;7521;51.700;6.874;2023-07-09T00:06:07;12.10;;;8.23;;
14858;SDS011;7521;51.700;6.874;2023-07-09T00:09:16;10.83;;;8.23;;
14858;SDS011;7521;51.700;6.874;2023-07-09T00:12:21;10.10;;;8.00;;
14858;SDS011;7521;51.700;6.874;2023-07-09T00:15:27;11.07;;;8.23;;
14858;SDS011;7521;51.700;6.874;2023-07-09T00:18:32;14.52;;;8.80;;
14858;SDS011;7521;51.700;6.874;2023-07-09T00:21:37;9.90;;;8.20;;
14858;SDS011;7521;51.700;6.874;2023-07-09T00:24:43;12.90;;;8.00;;
14858;SDS011;7521;51.700;6.874;2023-07-09T00:27:49;13.17;;;8.07;;
14858;SDS011;7521;51.700;6.874;2023-07-09T00:30:54;11.47;;;8.10;;
14858;SDS011;7521;51.700;6.874;2023-07-09T00:34:00;9.37;;;7.87;;
14858;SDS011;7521;51.700;6.874;2023-07-09T00:37:09;10.98;;;7.63;;
14858;SDS011;7521;51.700;6.874;2023-07-09T00:40:15;8.23;;;7.27;;
14858;SDS011;7521;51.700;6.874;2023-07-09T00:43:21;12.60;;;7.63;;
14858;SDS011;7521;51.700;6.874;2023-07-09T00:49:33;11.03;;;7.83;;
14858;SDS011;7521;51.700;6.874;2023-07-09T00:52:50;12.17;;;8.10;;
14858;SDS011;7521;51.700;6.874;2023-07-09T00:55:58;12.93;;;8.03;;
14858;SDS011;7521;51.700;6.874;2023-07-09T00:59:04;10.23;;;6.87;;
14858;SDS011;7521;51.700;6.874;2023-07-09T01:02:10;10.10;;;7.10;;
14858;SDS011;7521;51.700;6.874;2023-07-09T01:05:15;8.47;;;6.57;;
14858;SDS011;7521;51.700;6.874;2023-07-09T01:08:22;7.00;;;5.67;;
14858;SDS011;7521;51.700;6.874;2023-07-09T01:11:27;9.13;;;6.20;;
14858;SDS011;7521;51.700;6.874;2023-07-09T01:14:32;10.47;;;7.37;;
14858;SDS011;7521;51.700;6.874;2023-07-09T01:17:40;10.90;;;6.33;;
14858;SDS011;7521;51.700;6.874;2023-07-09T01:20:50;10.73;;;7.10;;
14858;SDS011;7521;51.700;6.874;2023-07-09T01:23:57;16.77;;;8.37;;
14858;SDS011;7521;51.700;6.874;2023-07-09T01:27:03;19.63;;;8.53;;
14858;SDS011;7521;51.700;6.874;2023-07-09T01:30:13;13.20;;;7.97;;
14858;SDS011;7521;51.700;6.874;2023-07-09T01:33:21;17.53;;;8.00;;
14858;SDS011;7521;51.700;6.874;2023-07-09T01:36:27;16.57;;;8.50;;
14858;SDS011;7521;51.700;6.874;2023-07-09T01:39:33;23.47;;;9.03;;
14858;SDS011;7521;51.700;6.874;2023-07-09T01:42:38;15.17;;;8.40;;
14858;SDS011;7521;51.700;6.874;2023-07-09T01:45:44;14.73;;;9.00;;
14858;SDS011;7521;51.700;6.874;2023-07-09T01:48:49;14.27;;;8.70;;
14858;SDS011;7521;51.700;6.874;2023-07-09T01:51:55;15.17;;;8.27;;
14858;SDS011;7521;51.700;6.874;2023-07-09T01:55:00;13.47;;;8.07;;
14858;SDS011;7521;51.700;6.874;2023-07-09T01:58:05;16.97;;;8.57;;
14858;SDS011;7521;51.700;6.874;2023-07-09T02:01:11;18.63;;;8.70;;
14858;SDS011;7521;51.700;6.874;2023-07-09T02:04:17;17.58;;;9.43;;
14858;SDS011;7521;51.700;6.874;2023-07-09T02:07:23;16.50;;;8.23;;
14858;SDS011;7521;51.700;6.874;2023-07-09T02:10:28;11.33;;;7.80;;
14858;SDS011;7521;51.700;6.874;2023-07-09T02:13:33;14.88;;;7.90;;
14858;SDS011;7521;51.700;6.874;2023-07-09T02:16:38;16.83;;;8.20;;
14858;SDS011;7521;51.700;6.874;2023-07-09T02:19:44;16.93;;;7.93;;
14858;SDS011;7521;51.700;6.874;2023-07-09T02:22:49;12.67;;;8.70;;
14858;SDS011;7521;51.700;6.874;2023-07-09T02:25:54;16.97;;;8.03;;
14858;SDS011;7521;51.700;6.874;2023-07-09T02:29:00;9.73;;;7.53;;
14858;SDS011;7521;51.700;6.874;2023-07-09T02:32:05;22.77;;;8.50;;
14858;SDS011;7521;51.700;6.874;2023-07-09T02:35:10;16.77;;;8.60;;
14858;SDS011;7521;51.700;6.874;2023-07-09T02:38:15;14.05;;;7.20;;
14858;SDS011;7521;51.700;6.874;2023-07-09T02:41:21;8.67;;;7.23;;
14858;SDS011;7521;51.700;6.874;2023-07-09T02:44:26;10.93;;;7.13;;
14858;SDS011;7521;51.700;6.874;2023-07-09T02:47:31;13.73;;;7.47;;
14858;SDS011;7521;51.700;6.874;2023-07-09T02:50:36;10.45;;;6.60;;
14858;SDS011;7521;51.700;6.874;2023-07-09T02:53:41;12.83;;;6.60;;
14858;SDS011;7521;51.700;6.874;2023-07-09T02:56:46;11.40;;;7.17;;
14858;SDS011;7521;51.700;6.874;2023-07-09T02:59:52;11.43;;;8.07;;
14858;SDS011;7521;51.700;6.874;2023-07-09T03:02:57;9.68;;;7.15;;
14858;SDS011;7521;51.700;6.874;2023-07-09T03:06:02;12.15;;;8.40;;
14858;SDS011;7521;51.700;6.874;2023-07-09T03:09:07;8.60;;;6.90;;
14858;SDS011;7521;51.700;6.874;2023-07-09T03:12:12;9.07;;;7.23;;
14858;SDS011;7521;51.700;6.874;2023-07-09T03:15:18;11.73;;;7.20;;
14858;SDS011;7521;51.700;6.874;2023-07-09T03:18:23;8.23;;;7.43;;
14858;SDS011;7521;51.700;6.874;2023-07-09T03:21:28;8.37;;;7.17;;
14858;SDS011;7521;51.700;6.874;2023-07-09T03:24:33;8.67;;;7.00;;
14858;SDS011;7521;51.700;6.874;2023-07-09T03:27:39;9.40;;;7.70;;
14858;SDS011;7521;51.700;6.874;2023-07-09T03:30:44;9.87;;;7.77;;
14858;SDS011;7521;51.700;6.874;2023-07-09T03:33:51;9.30;;;7.40;;
14858;SDS011;7521;51.700;6.874;2023-07-09T03:36:56;8.50;;;7.60;;
14858;SDS011;7521;51.700;6.874;2023-07-09T03:40:01;8.57;;;7.47;;
14858;SDS011;7521;51.700;6.874;2023-07-09T03:43:09;8.57;;;7.10;;
14858;SDS011;7521;51.700;6.874;2023-07-09T03:46:14;10.23;;;7.30;;
14858;SDS011;7521;51.700;6.874;2023-07-09T03:49:19;8.10;;;7.00;;
14858;SDS011;7521;51.700;6.874;2023-07-09T03:52:24;9.57;;;7.80;;
14858;SDS011;7521;51.700;6.874;2023-07-09T03:55:30;12.53;;;7.30;;
14858;SDS011;7521;51.700;6.874;2023-07-09T03:58:35;9.07;;;7.40;;
14858;SDS011;7521;51.700;6.874;2023-07-09T04:01:40;17.07;;;8.97;;
14858;SDS011;7521;51.700;6.874;2023-07-09T04:04:51;8.70;;;7.20;;
14858;SDS011;7521;51.700;6.874;2023-07-09T04:07:56;8.83;;;7.93;;
14858;SDS011;7521;51.700;6.874;2023-07-09T04:11:02;10.57;;;7.10;;
14858;SDS011;7521;51.700;6.874;2023-07-09T04:14:07;9.77;;;7.73;;
14858;SDS011;7521;51.700;6.874;2023-07-09T04:17:12;9.83;;;7.47;;
14858;SDS011;7521;51.700;6.874;2023-07-09T04:20:17;9.65;;;7.00;;
14858;SDS011;7521;51.700;6.874;2023-07-09T04:23:23;8.17;;;7.00;;
14858;SDS011;7521;51.700;6.874;2023-07-09T04:26:28;9.02;;;6.95;;
14858;SDS011;7521;51.700;6.874;2023-07-09T04:29:34;8.17;;;7.27;;
14858;SDS011;7521;51.700;6.874;2023-07-09T04:32:40;11.03;;;7.27;;
14858;SDS011;7521;51.700;6.874;2023-07-09T04:35:48;9.10;;;7.00;;
14858;SDS011;7521;51.700;6.874;2023-07-09T04:38:53;10.57;;;8.23;;
14858;SDS011;7521;51.700;6.874;2023-07-09T04:41:58;10.83;;;7.90;;
14858;SDS011;7521;51.700;6.874;2023-07-09T04:45:04;8.43;;;7.50;;
14858;SDS011;7521;51.700;6.874;2023-07-09T04:48:09;9.00;;;8.00;;
14858;SDS011;7521;51.700;6.874;2023-07-09T04:51:14;9.80;;;8.20;;
14858;SDS011;7521;51.700;6.874;2023-07-09T04:54:19;8.32;;;7.22;;
14858;SDS011;7521;51.700;6.874;2023-07-09T04:57:27;12.63;;;8.77;;
14858;SDS011;7521;51.700;6.874;2023-07-09T05:00:32;13.27;;;8.63;;
14858;SDS011;7521;51.700;6.874;2023-07-09T05:03:37;8.93;;;8.03;;
14858;SDS011;7521;51.700;6.874;2023-07-09T05:06:43;9.23;;;8.27;;
14858;SDS011;7521;51.700;6.874;2023-07-09T05:09:48;10.33;;;8.47;;
14858;SDS011;7521;51.700;6.874;2023-07-09T05:12:54;10.53;;;8.17;;
14858;SDS011;7521;51.700;6.874;2023-07-09T05:15:59;9.17;;;7.90;;
14858;SDS011;7521;51.700;6.874;2023-07-09T05:19:06;12.17;;;7.97;;
14858;SDS011;7521;51.700;6.874;2023-07-09T05:22:11;9.97;;;8.10;;
14858;SDS011;7521;51.700;6.874;2023-07-09T05:25:17;10.33;;;7.67;;
14858;SDS011;7521;51.700;6.874;2023-07-09T05:28:22;12.47;;;8.33;;
14858;SDS011;7521;51.700;6.874;2023-07-09T05:31:27;10.97;;;7.50;;
14858;SDS011;7521;51.700;6.874;2023-07-09T05:34:32;8.07;;;6.53;;
14858;SDS011;7521;51.700;6.874;2023-07-09T05:37:37;12.07;;;7.10;;
14858;SDS011;7521;51.700;6.874;2023-07-09T05:40:43;8.37;;;6.97;;
14858;SDS011;7521;51.700;6.874;2023-07-09T05:43:49;8.73;;;7.27;;
14858;SDS011;7521;51.700;6.874;2023-07-09T05:46:54;8.77;;;7.60;;
14858;SDS011;7521;51.700;6.874;2023-07-09T05:49:59;9.73;;;7.97;;
14858;SDS011;7521;51.700;6.874;2023-07-09T05:53:05;11.37;;;7.30;;
14858;SDS011;7521;51.700;6.874;2023-07-09T05:56:10;9.03;;;7.27;;
14858;SDS011;7521;51.700;6.874;2023-07-09T05:59:15;12.97;;;8.43;;
14858;SDS011;7521;51.700;6.874;2023-07-09T06:02:21;16.43;;;8.50;;
14858;SDS011;7521;51.700;6.874;2023-07-09T06:05:27;11.23;;;7.73;;
14858;SDS011;7521;51.700;6.874;2023-07-09T06:08:34;10.07;;;7.93;;
14858;SDS011;7521;51.700;6.874;2023-07-09T06:11:39;9.97;;;7.77;;
14858;SDS011;7521;51.700;6.874;2023-07-09T06:14:45;9.67;;;7.40;;
14858;SDS011;7521;51.700;6.874;2023-07-09T06:17:50;8.93;;;7.40;;
14858;SDS011;7521;51.700;6.874;2023-07-09T06:20:56;10.03;;;7.20;;
14858;SDS011;7521;51.700;6.874;2023-07-09T06:24:01;9.93;;;7.23;;
14858;SDS011;7521;51.700;6.874;2023-07-09T06:27:07;10.80;;;7.03;;
14858;SDS011;7521;51.700;6.874;2023-07-09T06:30:12;7.80;;;6.63;;
14858;SDS011;7521;51.700;6.874;2023-07-09T06:33:18;9.47;;;6.53;;
14858;SDS011;7521;51.700;6.874;2023-07-09T06:36:23;9.17;;;6.77;;
14858;SDS011;7521;51.700;6.874;2023-07-09T06:39:28;10.40;;;6.70;;
14858;SDS011;7521;51.700;6.874;2023-07-09T06:42:34;9.30;;;6.43;;
14858;SDS011;7521;51.700;6.874;2023-07-09T06:45:47;12.50;;;7.23;;
14858;SDS011;7521;51.700;6.874;2023-07-09T06:48:52;10.00;;;6.87;;
14858;SDS011;7521;51.700;6.874;2023-07-09T06:51:57;10.93;;;6.93;;
14858;SDS011;7521;51.700;6.874;2023-07-09T06:55:03;9.60;;;6.73;;
14858;SDS011;7521;51.700;6.874;2023-07-09T06:58:08;11.43;;;6.80;;
14858;SDS011;7521;51.700;6.874;2023-07-09T07:01:13;7.87;;;6.30;;
14858;SDS011;7521;51.700;6.874;2023-07-09T07:04:18;8.73;;;6.87;;
14858;SDS011;7521;51.700;6.874;2023-07-09T07:07:23;8.27;;;6.27;;
14858;SDS011;7521;51.700;6.874;2023-07-09T07:10:29;12.43;;;6.87;;
14858;SDS011;7521;51.700;6.874;2023-07-09T07:13:35;7.03;;;6.13;;
14858;SDS011;7521;51.700;6.874;2023-07-09T07:16:41;10.80;;;6.97;;
14858;SDS011;7521;51.700;6.874;2023-07-09T07:19:46;8.87;;;6.50;;
14858;SDS011;7521;51.700;6.874;2023-07-09T07:22:51;9.90;;;6.57;;
14858;SDS011;7521;51.700;6.874;2023-07-09T07:25:56;8.67;;;6.23;;
14858;SDS011;7521;51.700;6.874;2023-07-09T07:29:01;6.67;;;5.77;;
14858;SDS011;7521;51.700;6.874;2023-07-09T07:32:07;9.80;;;6.23;;
14858;SDS011;7521;51.700;6.874;2023-07-09T07:35:12;7.63;;;6.07;;
14858;SDS011;7521;51.700;6.874;2023-07-09T07:38:18;8.43;;;5.77;;
14858;SDS011;7521;51.700;6.874;2023-07-09T07:41:23;9.93;;;5.93;;
14858;SDS011;7521;51.700;6.874;2023-07-09T07:44:28;8.97;;;7.03;;
14858;SDS011;7521;51.700;6.874;2023-07-09T07:47:33;10.13;;;6.60;;
14858;SDS011;7521;51.700;6.874;2023-07-09T07:50:39;7.67;;;6.20;;
14858;SDS011;7521;51.700;6.874;2023-07-09T07:53:45;9.13;;;6.97;;
14858;SDS011;7521;51.700;6.874;2023-07-09T07:56:50;8.57;;;6.27;;
14858;SDS011;7521;51.700;6.874;2023-07-09T07:59:56;7.40;;;6.00;;
14858;SDS011;7521;51.700;6.874;2023-07-09T08:03:01;10.70;;;6.63;;
14858;SDS011;7521;51.700;6.874;2023-07-09T08:06:06;10.33;;;6.50;;
14858;SDS011;7521;51.700;6.874;2023-07-09T08:09:11;6.70;;;6.00;;
14858;SDS011;7521;51.700;6.874;2023-07-09T08:12:16;9.60;;;6.63;;
14858;SDS011;7521;51.700;6.874;2023-07-09T08:15:22;9.40;;;6.10;;
14858;SDS011;7521;51.700;6.874;2023-07-09T08:18:27;9.27;;;6.07;;
14858;SDS011;7521;51.700;6.874;2023-07-09T08:21:33;7.27;;;5.90;;
14858;SDS011;7521;51.700;6.874;2023-07-09T08:24:38;10.33;;;6.40;;
14858;SDS011;7521;51.700;6.874;2023-07-09T08:27:43;12.17;;;6.80;;
14858;SDS011;7521;51.700;6.874;2023-07-09T08:30:51;8.60;;;6.03;;
14858;SDS011;7521;51.700;6.874;2023-07-09T08:33:56;7.27;;;6.13;;
14858;SDS011;7521;51.700;6.874;2023-07-09T08:37:01;7.07;;;5.73;;
14858;SDS011;7521;51.700;6.874;2023-07-09T08:40:09;9.20;;;6.20;;
14858;SDS011;7521;51.700;6.874;2023-07-09T08:43:29;9.63;;;6.37;;
14858;SDS011;7521;51.700;6.874;2023-07-09T08:52:53;9.13;;;6.30;;
14858;SDS011;7521;51.700;6.874;2023-07-09T08:55:58;8.53;;;7.00;;
14858;SDS011;7521;51.700;6.874;2023-07-09T08:59:04;9.97;;;6.77;;
14858;SDS011;7521;51.700;6.874;2023-07-09T09:05:46;9.43;;;6.80;;
14858;SDS011;7521;51.700;6.874;2023-07-09T09:08:55;9.13;;;6.60;;
14858;SDS011;7521;51.700;6.874;2023-07-09T09:12:08;10.45;;;6.78;;
14858;SDS011;7521;51.700;6.874;2023-07-09T09:15:18;7.32;;;6.38;;
14858;SDS011;7521;51.700;6.874;2023-07-09T09:18:25;10.43;;;7.50;;
14858;SDS011;7521;51.700;6.874;2023-07-09T09:21:35;8.73;;;7.15;;
14858;SDS011;7521;51.700;6.874;2023-07-09T09:24:55;10.57;;;6.88;;
14858;SDS011;7521;51.700;6.874;2023-07-09T09:28:02;8.35;;;6.78;;
14858;SDS011;7521;51.700;6.874;2023-07-09T09:31:10;8.75;;;6.50;;
14858;SDS011;7521;51.700;6.874;2023-07-09T09:34:16;10.60;;;7.35;;
14858;SDS011;7521;51.700;6.874;2023-07-09T09:37:31;7.30;;;6.53;;
14858;SDS011;7521;51.700;6.874;2023-07-09T09:40:37;8.30;;;6.25;;
14858;SDS011;7521;51.700;6.874;2023-07-09T09:43:43;8.18;;;6.28;;
14858;SDS011;7521;51.700;6.874;2023-07-09T09:46:49;10.55;;;6.60;;
14858;SDS011;7521;51.700;6.874;2023-07-09T09:49:55;9.82;;;6.68;;
14858;SDS011;7521;51.700;6.874;2023-07-09T09:53:00;6.80;;;6.07;;
14858;SDS011;7521;51.700;6.874;2023-07-09T09:56:11;10.50;;;6.10;;
14858;SDS011;7521;51.700;6.874;2023-07-09T09:59:25;7.53;;;6.20;;
14858;SDS011;7521;51.700;6.874;2023-07-09T10:02:30;9.32;;;6.38;;
14858;SDS011;7521;51.700;6.874;2023-07-09T10:05:57;8.82;;;6.65;;
14858;SDS011;7521;51.700;6.874;2023-07-09T10:18:43;8.50;;;6.28;;
14858;SDS011;7521;51.700;6.874;2023-07-09T10:22:00;7.60;;;5.65;;
14858;SDS011;7521;51.700;6.874;2023-07-09T10:25:16;6.20;;;5.32;;
14858;SDS011;7521;51.700;6.874;2023-07-09T10:31:32;8.50;;;5.93;;
14858;SDS011;7521;51.700;6.874;2023-07-09T10:34:48;7.60;;;5.30;;
14858;SDS011;7521;51.700;6.874;2023-07-09T10:38:07;10.38;;;5.93;;
14858;SDS011;7521;51.700;6.874;2023-07-09T10:41:15;8.13;;;5.65;;
14858;SDS011;7521;51.700;6.874;2023-07-09T10:44:22;11.02;;;5.95;;
14858;SDS011;7521;51.700;6.874;2023-07-09T10:47:32;8.50;;;5.13;;
14858;SDS011;7521;51.700;6.874;2023-07-09T10:50:40;7.25;;;5.30;;
14858;SDS011;7521;51.700;6.874;2023-07-09T10:54:07;7.22;;;5.40;;
14858;SDS011;7521;51.700;6.874;2023-07-09T10:57:19;7.32;;;5.18;;
14858;SDS011;7521;51.700;6.874;2023-07-09T11:00:36;7.40;;;6.05;;
14858;SDS011;7521;51.700;6.874;2023-07-09T11:03:48;12.52;;;5.47;;
14858;SDS011;7521;51.700;6.874;2023-07-09T11:06:54;7.28;;;5.22;;
14858;SDS011;7521;51.700;6.874;2023-07-09T11:10:01;5.82;;;5.32;;
14858;SDS011;7521;51.700;6.874;2023-07-09T11:13:11;6.63;;;5.47;;
14858;SDS011;7521;51.700;6.874;2023-07-09T11:16:20;8.50;;;5.10;;
14858;SDS011;7521;51.700;6.874;2023-07-09T11:19:27;5.47;;;4.95;;
14858;SDS011;7521;51.700;6.874;2023-07-09T11:22:36;7.25;;;4.63;;
14858;SDS011;7521;51.700;6.874;2023-07-09T11:25:46;5.63;;;4.82;;
14858;SDS011;7521;51.700;6.874;2023-07-09T11:28:53;7.00;;;4.97;;
14858;SDS011;7521;51.700;6.874;2023-07-09T11:32:06;6.53;;;5.13;;
14858;SDS011;7521;51.700;6.874;2023-07-09T11:35:25;7.63;;;5.68;;
14858;SDS011;7521;51.700;6.874;2023-07-09T11:38:36;8.13;;;5.03;;
14858;SDS011;7521;51.700;6.874;2023-07-09T11:41:43;9.25;;;4.93;;
14858;SDS011;7521;51.700;6.874;2023-07-09T11:44:53;7.18;;;4.90;;
14858;SDS011;7521;51.700;6.874;2023-07-09T11:48:00;7.55;;;4.75;;
14858;SDS011;7521;51.700;6.874;2023-07-09T11:51:23;5.72;;;4.70;;
14858;SDS011;7521;51.700;6.874;2023-07-09T11:54:35;9.05;;;4.90;;
14858;SDS011;7521;51.700;6.874;2023-07-09T11:57:41;5.68;;;4.20;;
14858;SDS011;7521;51.700;6.874;2023-07-09T12:00:47;6.65;;;4.55;;
14858;SDS011;7521;51.700;6.874;2023-07-09T12:03:53;5.72;;;4.80;;
14858;SDS011;7521;51.700;6.874;2023-07-09T12:07:00;5.80;;;4.75;;
14858;SDS011;7521;51.700;6.874;2023-07-09T12:10:14;8.45;;;4.88;;
14858;SDS011;7521;51.700;6.874;2023-07-09T12:13:22;8.23;;;4.68;;
14858;SDS011;7521;51.700;6.874;2023-07-09T12:16:36;5.63;;;4.40;;
14858;SDS011;7521;51.700;6.874;2023-07-09T12:19:41;7.60;;;4.53;;
14858;SDS011;7521;51.700;6.874;2023-07-09T12:22:47;8.43;;;4.45;;
14858;SDS011;7521;51.700;6.874;2023-07-09T12:25:52;4.97;;;4.07;;
14858;SDS011;7521;51.700;6.874;2023-07-09T12:28:58;9.00;;;4.50;;
14858;SDS011;7521;51.700;6.874;2023-07-09T12:32:05;6.47;;;4.13;;
14858;SDS011;7521;51.700;6.874;2023-07-09T12:35:15;7.68;;;3.90;;
14858;SDS011;7521;51.700;6.874;2023-07-09T12:38:21;4.78;;;3.35;;
14858;SDS011;7521;51.700;6.874;2023-07-09T12:41:28;8.07;;;3.78;;
14858;SDS011;7521;51.700;6.874;2023-07-09T12:44:35;5.15;;;3.60;;
14858;SDS011;7521;51.700;6.874;2023-07-09T12:47:40;6.80;;;3.97;;
14858;SDS011;7521;51.700;6.874;2023-07-09T12:50:49;7.07;;;3.78;;
14858;SDS011;7521;51.700;6.874;2023-07-09T12:57:13;3.80;;;3.17;;
14858;SDS011;7521;51.700;6.874;2023-07-09T13:00:19;6.30;;;3.75;;
14858;SDS011;7521;51.700;6.874;2023-07-09T13:03:26;4.38;;;3.70;;
14858;SDS011;7521;51.700;6.874;2023-07-09T13:06:35;5.93;;;3.90;;
14858;SDS011;7521;51.700;6.874;2023-07-09T13:09:47;6.05;;;3.55;;
14858;SDS011;7521;51.700;6.874;2023-07-09T13:12:53;8.40;;;3.83;;
14858;SDS011;7521;51.700;6.874;2023-07-09T13:16:00;4.78;;;3.33;;
14858;SDS011;7521;51.700;6.874;2023-07-09T13:19:09;7.43;;;4.03;;
14858;SDS011;7521;51.700;6.874;2023-07-09T13:22:15;5.53;;;4.18;;
14858;SDS011;7521;51.700;6.874;2023-07-09T13:25:20;12.98;;;4.00;;
14858;SDS011;7521;51.700;6.874;2023-07-09T13:28:27;6.47;;;4.70;;
14858;SDS011;7521;51.700;6.874;2023-07-09T13:31:32;7.53;;;4.55;;
14858;SDS011;7521;51.700;6.874;2023-07-09T13:34:37;6.63;;;4.30;;
14858;SDS011;7521;51.700;6.874;2023-07-09T13:37:44;5.43;;;4.78;;
14858;SDS011;7521;51.700;6.874;2023-07-09T13:40:57;5.93;;;4.10;;
14858;SDS011;7521;51.700;6.874;2023-07-09T13:44:04;5.13;;;4.00;;
14858;SDS011;7521;51.700;6.874;2023-07-09T13:47:17;6.60;;;4.20;;
14858;SDS011;7521;51.700;6.874;2023-07-09T13:50:22;5.32;;;3.72;;
14858;SDS011;7521;51.700;6.874;2023-07-09T13:53:31;5.82;;;4.00;;
14858;SDS011;7521;51.700;6.874;2023-07-09T13:56:36;5.88;;;4.30;;
14858;SDS011;7521;51.700;6.874;2023-07-09T13:59:42;6.55;;;4.38;;
14858;SDS011;7521;51.700;6.874;2023-07-09T14:02:47;4.82;;;3.83;;
14858;SDS011;7521;51.700;6.874;2023-07-09T14:05:52;10.23;;;3.88;;
14858;SDS011;7521;51.700;6.874;2023-07-09T14:08:59;6.00;;;4.05;;
14858;SDS011;7521;51.700;6.874;2023-07-09T14:12:04;5.53;;;4.22;;
14858;SDS011;7521;51.700;6.874;2023-07-09T14:15:12;11.90;;;4.13;;
14858;SDS011;7521;51.700;6.874;2023-07-09T14:18:18;9.52;;;4.25;;
14858;SDS011;7521;51.700;6.874;2023-07-09T14:21:24;9.38;;;4.38;;
14858;SDS011;7521;51.700;6.874;2023-07-09T14:24:31;5.85;;;3.95;;
14858;SDS011;7521;51.700;6.874;2023-07-09T14:27:36;5.32;;;3.85;;
14858;SDS011;7521;51.700;6.874;2023-07-09T14:30:41;4.72;;;3.97;;
14858;SDS011;7521;51.700;6.874;2023-07-09T14:33:48;4.57;;;3.58;;
14858;SDS011;7521;51.700;6.874;2023-07-09T14:36:54;13.07;;;5.43;;
14858;SDS011;7521;51.700;6.874;2023-07-09T14:39:59;6.43;;;4.47;;
14858;SDS011;7521;51.700;6.874;2023-07-09T14:43:04;8.32;;;4.88;;
14858;SDS011;7521;51.700;6.874;2023-07-09T14:46:10;7.38;;;4.45;;
14858;SDS011;7521;51.700;6.874;2023-07-09T14:49:16;7.18;;;4.25;;
14858;SDS011;7521;51.700;6.874;2023-07-09T14:52:21;7.00;;;4.27;;
14858;SDS011;7521;51.700;6.874;2023-07-09T14:55:26;5.67;;;3.73;;
14858;SDS011;7521;51.700;6.874;2023-07-09T14:58:33;6.13;;;3.60;;
14858;SDS011;7521;51.700;6.874;2023-07-09T15:01:38;5.40;;;3.77;;
14858;SDS011;7521;51.700;6.874;2023-07-09T15:04:43;6.13;;;3.83;;
14858;SDS011;7521;51.700;6.874;2023-07-09T15:07:49;8.53;;;4.40;;
14858;SDS011;7521;51.700;6.874;2023-07-09T15:10:54;6.43;;;4.10;;
14858;SDS011;7521;51.700;6.874;2023-07-09T15:14:00;6.60;;;4.33;;
14858;SDS011;7521;51.700;6.874;2023-07-09T15:17:05;5.87;;;4.13;;
14858;SDS011;7521;51.700;6.874;2023-07-09T15:20:14;13.10;;;5.40;;
14858;SDS011;7521;51.700;6.874;2023-07-09T15:23:20;10.03;;;5.17;;
14858;SDS011;7521;51.700;6.874;2023-07-09T15:26:27;14.17;;;6.80;;
14858;SDS011;7521;51.700;6.874;2023-07-09T15:29:32;11.20;;;5.17;;
14858;SDS011;7521;51.700;6.874;2023-07-09T15:32:37;7.63;;;4.50;;
14858;SDS011;7521;51.700;6.874;2023-07-09T15:35:43;6.75;;;4.60;;
14858;SDS011;7521;51.700;6.874;2023-07-09T15:38:49;7.07;;;5.13;;
14858;SDS011;7521;51.700;6.874;2023-07-09T15:41:54;6.97;;;4.83;;
14858;SDS011;7521;51.700;6.874;2023-07-09T15:44:59;7.83;;;5.30;;
14858;SDS011;7521;51.700;6.874;2023-07-09T15:48:04;9.93;;;5.20;;
14858;SDS011;7521;51.700;6.874;2023-07-09T15:51:10;8.37;;;5.50;;
14858;SDS011;7521;51.700;6.874;2023-07-09T15:54:16;9.53;;;5.10;;
14858;SDS011;7521;51.700;6.874;2023-07-09T15:57:22;9.63;;;5.30;;
14858;SDS011;7521;51.700;6.874;2023-07-09T16:00:27;6.03;;;4.77;;
14858;SDS011;7521;51.700;6.874;2023-07-09T16:03:33;12.27;;;6.27;;
14858;SDS011;7521;51.700;6.874;2023-07-09T16:06:39;11.77;;;6.70;;
14858;SDS011;7521;51.700;6.874;2023-07-09T16:09:44;9.00;;;6.10;;
14858;SDS011;7521;51.700;6.874;2023-07-09T16:12:50;10.02;;;6.15;;
14858;SDS011;7521;51.700;6.874;2023-07-09T16:15:55;9.60;;;5.90;;
14858;SDS011;7521;51.700;6.874;2023-07-09T16:19:00;7.10;;;5.53;;
14858;SDS011;7521;51.700;6.874;2023-07-09T16:22:06;6.57;;;5.17;;
14858;SDS011;7521;51.700;6.874;2023-07-09T16:25:15;7.23;;;4.97;;
14858;SDS011;7521;51.700;6.874;2023-07-09T16:28:21;7.30;;;5.40;;
14858;SDS011;7521;51.700;6.874;2023-07-09T16:31:27;9.80;;;5.30;;
14858;SDS011;7521;51.700;6.874;2023-07-09T16:34:32;6.50;;;4.70;;
14858;SDS011;7521;51.700;6.874;2023-07-09T16:37:37;7.77;;;4.77;;
14858;SDS011;7521;51.700;6.874;2023-07-09T16:40:43;8.90;;;5.50;;
14858;SDS011;7521;51.700;6.874;2023-07-09T16:43:48;5.97;;;4.93;;
14858;SDS011;7521;51.700;6.874;2023-07-09T16:46:54;8.23;;;5.40;;
14858;SDS011;7521;51.700;6.874;2023-07-09T16:49:59;8.80;;;5.87;;
14858;SDS011;7521;51.700;6.874;2023-07-09T16:53:07;7.57;;;5.22;;
14858;SDS011;7521;51.700;6.874;2023-07-09T16:56:19;8.73;;;5.47;;
14858;SDS011;7521;51.700;6.874;2023-07-09T16:59:24;6.55;;;5.95;;
14858;SDS011;7521;51.700;6.874;2023-07-09T17:02:31;7.50;;;5.13;;
14858;SDS011;7521;51.700;6.874;2023-07-09T17:05:37;7.53;;;5.40;;
14858;SDS011;7521;51.700;6.874;2023-07-09T17:08:42;9.00;;;5.60;;
14858;SDS011;7521;51.700;6.874;2023-07-09T17:11:50;9.07;;;5.70;;
14858;SDS011;7521;51.700;6.874;2023-07-09T17:14:56;6.80;;;5.93;;
14858;SDS011;7521;51.700;6.874;2023-07-09T17:18:02;7.63;;;5.77;;
14858;SDS011;7521;51.700;6.874;2023-07-09T17:21:09;8.20;;;5.83;;
14858;SDS011;7521;51.700;6.874;2023-07-09T17:24:24;8.53;;;5.67;;
14858;SDS011;7521;51.700;6.874;2023-07-09T17:27:31;9.03;;;7.10;;
14858;SDS011;7521;51.700;6.874;2023-07-09T17:30:37;9.57;;;5.87;;
14858;SDS011;7521;51.700;6.874;2023-07-09T17:33:42;7.73;;;6.27;;
14858;SDS011;7521;51.700;6.874;2023-07-09T17:36:47;8.20;;;5.17;;
14858;SDS011;7521;51.700;6.874;2023-07-09T17:39:52;6.17;;;5.30;;
14858;SDS011;7521;51.700;6.874;2023-07-09T17:42:58;6.97;;;5.20;;
14858;SDS011;7521;51.700;6.874;2023-07-09T17:46:03;6.87;;;5.00;;
14858;SDS011;7521;51.700;6.874;2023-07-09T17:49:15;10.27;;;5.07;;
14858;SDS011;7521;51.700;6.874;2023-07-09T17:52:21;5.97;;;5.07;;
14858;SDS011;7521;51.700;6.874;2023-07-09T17:55:26;5.47;;;4.43;;
14858;SDS011;7521;51.700;6.874;2023-07-09T17:58:36;6.60;;;5.47;;
14858;SDS011;7521;51.700;6.874;2023-07-09T18:01:43;5.87;;;4.63;;
14858;SDS011;7521;51.700;6.874;2023-07-09T18:04:48;6.07;;;4.57;;
14858;SDS011;7521;51.700;6.874;2023-07-09T18:07:53;7.63;;;5.87;;
14858;SDS011;7521;51.700;6.874;2023-07-09T18:10:59;8.67;;;5.63;;
14858;SDS011;7521;51.700;6.874;2023-07-09T18:14:04;6.20;;;4.90;;
14858;SDS011;7521;51.700;6.874;2023-07-09T18:17:16;7.83;;;4.77;;
14858;SDS011;7521;51.700;6.874;2023-07-09T18:20:23;5.87;;;4.77;;
14858;SDS011;7521;51.700;6.874;2023-07-09T18:23:28;8.17;;;5.70;;
14858;SDS011;7521;51.700;6.874;2023-07-09T18:26:33;6.97;;;5.67;;
14858;SDS011;7521;51.700;6.874;2023-07-09T18:29:39;6.77;;;5.87;;
14858;SDS011;7521;51.700;6.874;2023-07-09T18:32:44;7.83;;;6.40;;
14858;SDS011;7521;51.700;6.874;2023-07-09T18:35:51;7.47;;;6.57;;
14858;SDS011;7521;51.700;6.874;2023-07-09T18:38:57;9.57;;;7.33;;
14858;SDS011;7521;51.700;6.874;2023-07-09T18:42:02;9.93;;;7.63;;
14858;SDS011;7521;51.700;6.874;2023-07-09T18:45:12;9.73;;;7.13;;
14858;SDS011;7521;51.700;6.874;2023-07-09T18:48:19;8.50;;;6.37;;
14858;SDS011;7521;51.700;6.874;2023-07-09T18:51:26;12.37;;;6.57;;
14858;SDS011;7521;51.700;6.874;2023-07-09T18:54:31;9.02;;;6.55;;
14858;SDS011;7521;51.700;6.874;2023-07-09T18:57:36;8.50;;;7.30;;
14858;SDS011;7521;51.700;6.874;2023-07-09T19:00:41;6.90;;;6.20;;
14858;SDS011;7521;51.700;6.874;2023-07-09T19:03:47;6.83;;;5.90;;
14858;SDS011;7521;51.700;6.874;2023-07-09T19:06:52;8.33;;;7.30;;
14858;SDS011;7521;51.700;6.874;2023-07-09T19:09:58;8.60;;;7.33;;
14858;SDS011;7521;51.700;6.874;2023-07-09T19:13:07;12.83;;;8.30;;
14858;SDS011;7521;51.700;6.874;2023-07-09T19:16:21;10.10;;;9.20;;
14858;SDS011;7521;51.700;6.874;2023-07-09T19:19:28;8.77;;;7.97;;
14858;SDS011;7521;51.700;6.874;2023-07-09T19:22:33;9.80;;;8.30;;
14858;SDS011;7521;51.700;6.874;2023-07-09T19:25:38;9.60;;;8.60;;
14858;SDS011;7521;51.700;6.874;2023-07-09T19:28:44;8.90;;;8.10;;